sensor_id;sensor_type;location;lat;lon;timestamp;P1;durP1;ratioP1;P2;durP2;ratioP2
67717;SDS011;54511;47.532;19.180;2023-08-06T00:00:03;2.42;;;1.60;;
67717;SDS011;54511;47.532;19.180;2023-08-06T00:03:30;2.58;;;1.83;;
67717;SDS011;54511;47.532;19.180;2023-08-06T00:06:22;2.92;;;1.60;;
67717;SDS011;54511;47.532;19.180;2023-08-06T00:09:11;4.47;;;1.37;;
67717;SDS011;54511;47.532;19.180;2023-08-06T00:12:20;1.77;;;1.37;;
67717;SDS011;54511;47.532;19.180;2023-08-06T00:15:27;2.83;;;1.73;;
67717;SDS011;54511;47.532;19.180;2023-08-06T00:18:54;2.90;;;1.83;;
67717;SDS011;54511;47.532;19.180;2023-08-06T00:21:45;2.87;;;1.87;;
67717;SDS011;54511;47.532;19.180;2023-08-06T00:24:54;2.17;;;1.90;;
67717;SDS011;54511;47.532;19.180;2023-08-06T00:27:42;3.85;;;2.25;;
67717;SDS011;54511;47.532;19.180;2023-08-06T00:30:52;4.62;;;2.62;;
67717;SDS011;54511;47.532;19.180;2023-08-06T00:34:19;2.55;;;1.80;;
67717;SDS011;54511;47.532;19.180;2023-08-06T00:37:11;3.58;;;1.65;;
67717;SDS011;54511;47.532;19.180;2023-08-06T00:40:20;5.20;;;1.67;;
67717;SDS011;54511;47.532;19.180;2023-08-06T00:43:27;2.10;;;1.48;;
67717;SDS011;54511;47.532;19.180;2023-08-06T00:46:46;4.57;;;2.47;;
67717;SDS011;54511;47.532;19.180;2023-08-06T00:50:07;2.80;;;1.92;;
67717;SDS011;54511;47.532;19.180;2023-08-06T00:57:02;1.80;;;1.42;;
67717;SDS011;54511;47.532;19.180;2023-08-06T01:00:37;2.67;;;1.83;;
67717;SDS011;54511;47.532;19.180;2023-08-06T01:04:07;2.85;;;2.10;;
67717;SDS011;54511;47.532;19.180;2023-08-06T01:07:25;3.53;;;1.77;;
67717;SDS011;54511;47.532;19.180;2023-08-06T01:14:13;5.93;;;2.30;;
67717;SDS011;54511;47.532;19.180;2023-08-06T01:17:48;4.82;;;2.35;;
67717;SDS011;54511;47.532;19.180;2023-08-06T01:21:08;6.32;;;2.00;;
67717;SDS011;54511;47.532;19.180;2023-08-06T01:24:35;2.58;;;2.10;;
67717;SDS011;54511;47.532;19.180;2023-08-06T01:27:52;3.95;;;2.35;;
67717;SDS011;54511;47.532;19.180;2023-08-06T01:31:48;3.15;;;2.00;;
67717;SDS011;54511;47.532;19.180;2023-08-06T01:38:45;1.98;;;1.62;;
67717;SDS011;54511;47.532;19.180;2023-08-06T01:42:09;3.62;;;2.00;;
67717;SDS011;54511;47.532;19.180;2023-08-06T01:45:24;4.62;;;2.95;;
67717;SDS011;54511;47.532;19.180;2023-08-06T01:48:37;2.50;;;1.80;;
67717;SDS011;54511;47.532;19.180;2023-08-06T01:52:16;3.85;;;2.22;;
67717;SDS011;54511;47.532;19.180;2023-08-06T01:56:04;3.20;;;1.73;;
67717;SDS011;54511;47.532;19.180;2023-08-06T01:59:46;3.72;;;2.40;;
67717;SDS011;54511;47.532;19.180;2023-08-06T02:02:46;2.80;;;1.77;;
67717;SDS011;54511;47.532;19.180;2023-08-06T02:05:29;8.25;;;2.28;;
67717;SDS011;54511;47.532;19.180;2023-08-06T02:09:15;2.70;;;1.50;;
67717;SDS011;54511;47.532;19.180;2023-08-06T02:12:56;4.03;;;2.45;;
67717;SDS011;54511;47.532;19.180;2023-08-06T02:16:49;3.00;;;2.00;;
67717;SDS011;54511;47.532;19.180;2023-08-06T02:20:29;2.05;;;1.65;;
67717;SDS011;54511;47.532;19.180;2023-08-06T02:23:20;5.03;;;1.98;;
67717;SDS011;54511;47.532;19.180;2023-08-06T02:27:03;4.53;;;2.17;;
67717;SDS011;54511;47.532;19.180;2023-08-06T02:37:27;3.95;;;1.75;;
67717;SDS011;54511;47.532;19.180;2023-08-06T02:40:33;2.95;;;1.50;;
67717;SDS011;54511;47.532;19.180;2023-08-06T02:47:08;1.98;;;1.42;;
67717;SDS011;54511;47.532;19.180;2023-08-06T02:50:56;2.42;;;1.27;;
67717;SDS011;54511;47.532;19.180;2023-08-06T03:14:54;2.55;;;1.87;;
67717;SDS011;54511;47.532;19.180;2023-08-06T03:18:23;2.80;;;1.62;;
67717;SDS011;54511;47.532;19.180;2023-08-06T03:21:48;4.22;;;2.03;;
67717;SDS011;54511;47.532;19.180;2023-08-06T03:25:06;3.05;;;1.48;;
67717;SDS011;54511;47.532;19.180;2023-08-06T03:28:18;3.60;;;2.10;;
67717;SDS011;54511;47.532;19.180;2023-08-06T03:41:39;2.25;;;1.27;;
67717;SDS011;54511;47.532;19.180;2023-08-06T03:45:18;2.40;;;1.77;;
67717;SDS011;54511;47.532;19.180;2023-08-06T03:49:02;3.33;;;2.00;;
67717;SDS011;54511;47.532;19.180;2023-08-06T03:58:51;3.12;;;2.12;;
67717;SDS011;54511;47.532;19.180;2023-08-06T04:02:18;2.92;;;1.62;;
67717;SDS011;54511;47.532;19.180;2023-08-06T04:09:16;3.17;;;1.67;;
67717;SDS011;54511;47.532;19.180;2023-08-06T04:19:08;2.28;;;1.48;;
67717;SDS011;54511;47.532;19.180;2023-08-06T04:22:39;3.45;;;1.90;;
67717;SDS011;54511;47.532;19.180;2023-08-06T04:26:15;3.85;;;1.77;;
67717;SDS011;54511;47.532;19.180;2023-08-06T04:40:47;1.85;;;1.20;;
67717;SDS011;54511;47.532;19.180;2023-08-06T04:44:17;2.53;;;1.30;;
67717;SDS011;54511;47.532;19.180;2023-08-06T04:47:24;1.20;;;0.85;;
67717;SDS011;54511;47.532;19.180;2023-08-06T04:50:36;4.03;;;1.15;;
67717;SDS011;54511;47.532;19.180;2023-08-06T04:53:47;3.55;;;2.20;;
67717;SDS011;54511;47.532;19.180;2023-08-06T05:03:58;1.63;;;1.33;;
67717;SDS011;54511;47.532;19.180;2023-08-06T05:10:42;0.75;;;0.75;;
67717;SDS011;54511;47.532;19.180;2023-08-06T05:14:14;1.60;;;0.90;;
67717;SDS011;54511;47.532;19.180;2023-08-06T05:21:07;1.17;;;0.57;;
67717;SDS011;54511;47.532;19.180;2023-08-06T05:24:35;0.10;;;0.10;;
67717;SDS011;54511;47.532;19.180;2023-08-06T05:27:22;0.20;;;0.20;;
67717;SDS011;54511;47.532;19.180;2023-08-06T05:30:12;0.00;;;0.00;;
67717;SDS011;54511;47.532;19.180;2023-08-06T05:33:38;0.52;;;0.40;;
67717;SDS011;54511;47.532;19.180;2023-08-06T05:36:35;0.10;;;0.10;;
67717;SDS011;54511;47.532;19.180;2023-08-06T05:39:45;0.35;;;0.35;;
67717;SDS011;54511;47.532;19.180;2023-08-06T05:42:33;0.03;;;0.03;;
67717;SDS011;54511;47.532;19.180;2023-08-06T05:45:43;0.40;;;0.20;;
67717;SDS011;54511;47.532;19.180;2023-08-06T05:49:11;0.00;;;0.00;;
67717;SDS011;54511;47.532;19.180;2023-08-06T05:56:04;0.17;;;0.17;;
67717;SDS011;54511;47.532;19.180;2023-08-06T05:59:13;0.10;;;0.10;;
67717;SDS011;54511;47.532;19.180;2023-08-06T06:02:00;1.08;;;0.10;;
67717;SDS011;54511;47.532;19.180;2023-08-06T06:05:10;0.00;;;0.00;;
67717;SDS011;54511;47.532;19.180;2023-08-06T06:08:38;0.10;;;0.10;;
67717;SDS011;54511;47.532;19.180;2023-08-06T06:11:34;0.10;;;0.10;;
67717;SDS011;54511;47.532;19.180;2023-08-06T06:14:29;0.00;;;0.00;;
67717;SDS011;54511;47.532;19.180;2023-08-06T06:17:56;0.10;;;0.10;;
67717;SDS011;54511;47.532;19.180;2023-08-06T06:21:04;0.10;;;0.10;;
67717;SDS011;54511;47.532;19.180;2023-08-06T06:24:18;0.10;;;0.10;;
67717;SDS011;54511;47.532;19.180;2023-08-06T06:27:25;0.28;;;0.17;;
67717;SDS011;54511;47.532;19.180;2023-08-06T06:30:13;0.10;;;0.10;;
67717;SDS011;54511;47.532;19.180;2023-08-06T06:33:21;0.10;;;0.10;;
67717;SDS011;54511;47.532;19.180;2023-08-06T06:36:28;0.17;;;0.10;;
67717;SDS011;54511;47.532;19.180;2023-08-06T06:39:20;0.00;;;0.00;;
67717;SDS011;54511;47.532;19.180;2023-08-06T06:42:27;0.10;;;0.10;;
67717;SDS011;54511;47.532;19.180;2023-08-06T06:45:34;0.05;;;0.05;;
67717;SDS011;54511;47.532;19.180;2023-08-06T06:48:04;0.03;;;0.03;;
67717;SDS011;54511;47.532;19.180;2023-08-06T06:50:51;0.00;;;0.00;;
67717;SDS011;54511;47.532;19.180;2023-08-06T06:54:22;0.40;;;0.10;;
67717;SDS011;54511;47.532;19.180;2023-08-06T06:57:49;0.15;;;0.05;;
67717;SDS011;54511;47.532;19.180;2023-08-06T07:00:38;0.75;;;0.47;;
67717;SDS011;54511;47.532;19.180;2023-08-06T07:03:26;0.10;;;0.10;;
67717;SDS011;54511;47.532;19.180;2023-08-06T07:06:47;0.00;;;0.00;;
67717;SDS011;54511;47.532;19.180;2023-08-06T07:09:37;0.00;;;0.00;;
67717;SDS011;54511;47.532;19.180;2023-08-06T07:12:47;0.20;;;0.20;;
67717;SDS011;54511;47.532;19.180;2023-08-06T07:15:34;0.20;;;0.20;;
67717;SDS011;54511;47.532;19.180;2023-08-06T07:18:22;0.20;;;0.20;;
67717;SDS011;54511;47.532;19.180;2023-08-06T07:21:29;0.10;;;0.10;;
67717;SDS011;54511;47.532;19.180;2023-08-06T07:24:18;0.20;;;0.20;;
67717;SDS011;54511;47.532;19.180;2023-08-06T07:27:46;0.10;;;0.10;;
67717;SDS011;54511;47.532;19.180;2023-08-06T07:31:16;0.20;;;0.20;;
67717;SDS011;54511;47.532;19.180;2023-08-06T07:34:23;0.20;;;0.20;;
67717;SDS011;54511;47.532;19.180;2023-08-06T07:37:11;0.20;;;0.20;;
67717;SDS011;54511;47.532;19.180;2023-08-06T07:40:28;0.10;;;0.10;;
67717;SDS011;54511;47.532;19.180;2023-08-06T07:44:01;0.10;;;0.10;;
67717;SDS011;54511;47.532;19.180;2023-08-06T07:47:32;0.00;;;0.00;;
67717;SDS011;54511;47.532;19.180;2023-08-06T07:51:05;0.10;;;0.10;;
67717;SDS011;54511;47.532;19.180;2023-08-06T07:54:35;0.10;;;0.10;;
67717;SDS011;54511;47.532;19.180;2023-08-06T07:57:45;0.00;;;0.00;;
67717;SDS011;54511;47.532;19.180;2023-08-06T08:00:57;0.00;;;0.00;;
67717;SDS011;54511;47.532;19.180;2023-08-06T08:04:04;0.22;;;0.10;;
67717;SDS011;54511;47.532;19.180;2023-08-06T08:10:53;0.00;;;0.00;;
67717;SDS011;54511;47.532;19.180;2023-08-06T08:32:10;0.10;;;0.10;;
67717;SDS011;54511;47.532;19.180;2023-08-06T08:42:49;0.10;;;0.10;;
67717;SDS011;54511;47.532;19.180;2023-08-06T08:49:28;0.05;;;0.05;;
67717;SDS011;54511;47.532;19.180;2023-08-06T08:59:22;0.00;;;0.00;;
67717;SDS011;54511;47.532;19.180;2023-08-06T09:05:49;0.40;;;0.10;;
67717;SDS011;54511;47.532;19.180;2023-08-06T09:09:20;0.00;;;0.00;;
67717;SDS011;54511;47.532;19.180;2023-08-06T09:12:41;0.00;;;0.00;;
67717;SDS011;54511;47.532;19.180;2023-08-06T09:15:51;0.32;;;0.10;;
67717;SDS011;54511;47.532;19.180;2023-08-06T09:19:18;0.00;;;0.00;;
67717;SDS011;54511;47.532;19.180;2023-08-06T09:25:47;0.00;;;0.00;;
67717;SDS011;54511;47.532;19.180;2023-08-06T09:29:16;0.17;;;0.17;;
67717;SDS011;54511;47.532;19.180;2023-08-06T09:32:03;0.00;;;0.00;;
67717;SDS011;54511;47.532;19.180;2023-08-06T09:35:13;0.10;;;0.10;;
67717;SDS011;54511;47.532;19.180;2023-08-06T09:38:38;0.15;;;0.13;;
67717;SDS011;54511;47.532;19.180;2023-08-06T09:41:47;0.03;;;0.03;;
67717;SDS011;54511;47.532;19.180;2023-08-06T09:45:08;1.00;;;0.32;;
67717;SDS011;54511;47.532;19.180;2023-08-06T09:48:43;0.45;;;0.25;;
67717;SDS011;54511;47.532;19.180;2023-08-06T09:52:13;0.10;;;0.10;;
67717;SDS011;54511;47.532;19.180;2023-08-06T09:58:42;0.00;;;0.00;;
67717;SDS011;54511;47.532;19.180;2023-08-06T10:01:49;0.00;;;0.00;;
67717;SDS011;54511;47.532;19.180;2023-08-06T10:05:22;0.10;;;0.10;;
67717;SDS011;54511;47.532;19.180;2023-08-06T10:08:53;0.70;;;0.40;;
67717;SDS011;54511;47.532;19.180;2023-08-06T10:12:05;0.17;;;0.08;;
67717;SDS011;54511;47.532;19.180;2023-08-06T10:15:44;0.30;;;0.10;;
67717;SDS011;54511;47.532;19.180;2023-08-06T10:19:18;0.10;;;0.10;;
67717;SDS011;54511;47.532;19.180;2023-08-06T10:22:34;0.73;;;0.30;;
67717;SDS011;54511;47.532;19.180;2023-08-06T10:25:26;0.20;;;0.20;;
67717;SDS011;54511;47.532;19.180;2023-08-06T10:35:10;0.10;;;0.10;;
67717;SDS011;54511;47.532;19.180;2023-08-06T10:38:32;0.10;;;0.10;;
67717;SDS011;54511;47.532;19.180;2023-08-06T10:42:19;0.50;;;0.40;;
67717;SDS011;54511;47.532;19.180;2023-08-06T10:45:49;0.10;;;0.10;;
67717;SDS011;54511;47.532;19.180;2023-08-06T10:49:15;0.20;;;0.20;;
67717;SDS011;54511;47.532;19.180;2023-08-06T10:52:43;0.03;;;0.03;;
67717;SDS011;54511;47.532;19.180;2023-08-06T10:55:55;0.20;;;0.20;;
67717;SDS011;54511;47.532;19.180;2023-08-06T10:59:22;0.08;;;0.08;;
67717;SDS011;54511;47.532;19.180;2023-08-06T11:02:09;0.10;;;0.10;;
67717;SDS011;54511;47.532;19.180;2023-08-06T11:08:58;0.00;;;0.00;;
67717;SDS011;54511;47.532;19.180;2023-08-06T11:11:47;0.22;;;0.20;;
67717;SDS011;54511;47.532;19.180;2023-08-06T11:15:04;0.00;;;0.00;;
67717;SDS011;54511;47.532;19.180;2023-08-06T11:18:32;0.10;;;0.10;;
67717;SDS011;54511;47.532;19.180;2023-08-06T11:22:02;0.10;;;0.10;;
67717;SDS011;54511;47.532;19.180;2023-08-06T11:25:36;0.10;;;0.10;;
67717;SDS011;54511;47.532;19.180;2023-08-06T11:29:05;0.43;;;0.20;;
67717;SDS011;54511;47.532;19.180;2023-08-06T11:32:12;0.10;;;0.10;;
67717;SDS011;54511;47.532;19.180;2023-08-06T11:35:20;0.15;;;0.10;;
67717;SDS011;54511;47.532;19.180;2023-08-06T11:37:50;0.10;;;0.10;;
67717;SDS011;54511;47.532;19.180;2023-08-06T11:40:20;0.20;;;0.20;;
67717;SDS011;54511;47.532;19.180;2023-08-06T11:42:57;0.20;;;0.10;;
67717;SDS011;54511;47.532;19.180;2023-08-06T11:45:27;0.20;;;0.10;;
67717;SDS011;54511;47.532;19.180;2023-08-06T11:48:14;0.25;;;0.17;;
67717;SDS011;54511;47.532;19.180;2023-08-06T11:50:43;0.10;;;0.10;;
67717;SDS011;54511;47.532;19.180;2023-08-06T11:53:37;0.10;;;0.10;;
67717;SDS011;54511;47.532;19.180;2023-08-06T11:56:24;0.15;;;0.15;;
67717;SDS011;54511;47.532;19.180;2023-08-06T11:59:32;1.48;;;0.77;;
67717;SDS011;54511;47.532;19.180;2023-08-06T12:02:20;0.57;;;0.28;;
67717;SDS011;54511;47.532;19.180;2023-08-06T12:05:47;0.70;;;0.35;;
67717;SDS011;54511;47.532;19.180;2023-08-06T12:08:56;0.40;;;0.35;;
67717;SDS011;54511;47.532;19.180;2023-08-06T12:12:03;0.20;;;0.20;;
67717;SDS011;54511;47.532;19.180;2023-08-06T12:15:12;0.28;;;0.28;;
67717;SDS011;54511;47.532;19.180;2023-08-06T12:18:08;0.20;;;0.20;;
67717;SDS011;54511;47.532;19.180;2023-08-06T12:21:15;0.32;;;0.20;;
67717;SDS011;54511;47.532;19.180;2023-08-06T12:24:23;0.30;;;0.30;;
67717;SDS011;54511;47.532;19.180;2023-08-06T12:27:32;0.10;;;0.10;;
67717;SDS011;54511;47.532;19.180;2023-08-06T12:30:23;0.25;;;0.20;;
67717;SDS011;54511;47.532;19.180;2023-08-06T12:32:55;0.15;;;0.15;;
67717;SDS011;54511;47.532;19.180;2023-08-06T12:35:22;0.30;;;0.30;;
67717;SDS011;54511;47.532;19.180;2023-08-06T12:37:53;0.28;;;0.28;;
67717;SDS011;54511;47.532;19.180;2023-08-06T12:40:45;0.35;;;0.28;;
67717;SDS011;54511;47.532;19.180;2023-08-06T12:44:12;0.40;;;0.40;;
67717;SDS011;54511;47.532;19.180;2023-08-06T12:46:43;0.90;;;0.20;;
67717;SDS011;54511;47.532;19.180;2023-08-06T12:49:12;0.10;;;0.10;;
67717;SDS011;54511;47.532;19.180;2023-08-06T12:52:00;0.20;;;0.20;;
67717;SDS011;54511;47.532;19.180;2023-08-06T12:55:27;0.22;;;0.20;;
67717;SDS011;54511;47.532;19.180;2023-08-06T12:58:16;0.85;;;0.43;;
67717;SDS011;54511;47.532;19.180;2023-08-06T13:01:03;0.32;;;0.17;;
67717;SDS011;54511;47.532;19.180;2023-08-06T13:03:51;0.30;;;0.22;;
67717;SDS011;54511;47.532;19.180;2023-08-06T13:06:18;0.28;;;0.28;;
67717;SDS011;54511;47.532;19.180;2023-08-06T13:08:46;0.10;;;0.10;;
67717;SDS011;54511;47.532;19.180;2023-08-06T13:11:40;0.20;;;0.20;;
67717;SDS011;54511;47.532;19.180;2023-08-06T13:14:46;1.12;;;0.55;;
67717;SDS011;54511;47.532;19.180;2023-08-06T13:17:33;0.43;;;0.32;;
67717;SDS011;54511;47.532;19.180;2023-08-06T13:20:09;0.37;;;0.37;;
67717;SDS011;54511;47.532;19.180;2023-08-06T13:22:57;0.43;;;0.43;;
67717;SDS011;54511;47.532;19.180;2023-08-06T13:26:23;0.28;;;0.28;;
67717;SDS011;54511;47.532;19.180;2023-08-06T13:29:54;0.65;;;0.60;;
67717;SDS011;54511;47.532;19.180;2023-08-06T13:32:41;1.10;;;0.50;;
67717;SDS011;54511;47.532;19.180;2023-08-06T13:35:13;0.80;;;0.43;;
67717;SDS011;54511;47.532;19.180;2023-08-06T13:38:01;0.45;;;0.45;;
67717;SDS011;54511;47.532;19.180;2023-08-06T13:40:52;0.60;;;0.40;;
67717;SDS011;54511;47.532;19.180;2023-08-06T13:44:27;0.50;;;0.50;;
67717;SDS011;54511;47.532;19.180;2023-08-06T13:47:14;1.23;;;0.70;;
67717;SDS011;54511;47.532;19.180;2023-08-06T13:50:01;0.35;;;0.35;;
67717;SDS011;54511;47.532;19.180;2023-08-06T13:53:08;0.43;;;0.30;;
67717;SDS011;54511;47.532;19.180;2023-08-06T13:56:04;0.35;;;0.35;;
67717;SDS011;54511;47.532;19.180;2023-08-06T13:58:32;0.30;;;0.30;;
67717;SDS011;54511;47.532;19.180;2023-08-06T14:01:43;0.50;;;0.45;;
67717;SDS011;54511;47.532;19.180;2023-08-06T14:04:10;0.57;;;0.57;;
67717;SDS011;54511;47.532;19.180;2023-08-06T14:06:59;0.43;;;0.22;;
67717;SDS011;54511;47.532;19.180;2023-08-06T14:09:46;0.43;;;0.43;;
67717;SDS011;54511;47.532;19.180;2023-08-06T14:12:16;1.12;;;0.60;;
67717;SDS011;54511;47.532;19.180;2023-08-06T14:15:23;0.55;;;0.55;;
67717;SDS011;54511;47.532;19.180;2023-08-06T14:18:51;1.70;;;0.70;;
67717;SDS011;54511;47.532;19.180;2023-08-06T14:21:40;0.67;;;0.40;;
67717;SDS011;54511;47.532;19.180;2023-08-06T14:24:07;0.47;;;0.32;;
67717;SDS011;54511;47.532;19.180;2023-08-06T14:26:37;0.65;;;0.37;;
67717;SDS011;54511;47.532;19.180;2023-08-06T14:29:30;1.98;;;0.62;;
67717;SDS011;54511;47.532;19.180;2023-08-06T14:32:49;1.17;;;0.80;;
67717;SDS011;54511;47.532;19.180;2023-08-06T14:35:57;0.95;;;0.75;;
67717;SDS011;54511;47.532;19.180;2023-08-06T14:39:05;0.55;;;0.47;;
67717;SDS011;54511;47.532;19.180;2023-08-06T14:42:16;0.60;;;0.28;;
67717;SDS011;54511;47.532;19.180;2023-08-06T14:45:40;0.45;;;0.40;;
67717;SDS011;54511;47.532;19.180;2023-08-06T14:48:21;0.50;;;0.50;;
67717;SDS011;54511;47.532;19.180;2023-08-06T14:54:59;0.80;;;0.40;;
67717;SDS011;54511;47.532;19.180;2023-08-06T14:58:29;0.47;;;0.47;;
67717;SDS011;54511;47.532;19.180;2023-08-06T15:01:37;0.75;;;0.55;;
67717;SDS011;54511;47.532;19.180;2023-08-06T15:04:27;0.95;;;0.82;;
67717;SDS011;54511;47.532;19.180;2023-08-06T15:07:56;0.52;;;0.30;;
67717;SDS011;54511;47.532;19.180;2023-08-06T15:11:12;1.00;;;0.50;;
67717;SDS011;54511;47.532;19.180;2023-08-06T15:14:19;1.12;;;0.77;;
67717;SDS011;54511;47.532;19.180;2023-08-06T15:17:31;0.82;;;0.55;;
67717;SDS011;54511;47.532;19.180;2023-08-06T15:20:19;0.32;;;0.30;;
67717;SDS011;54511;47.532;19.180;2023-08-06T15:23:08;0.28;;;0.25;;
67717;SDS011;54511;47.532;19.180;2023-08-06T15:26:16;0.75;;;0.75;;
67717;SDS011;54511;47.532;19.180;2023-08-06T15:32:11;0.40;;;0.40;;
67717;SDS011;54511;47.532;19.180;2023-08-06T15:35:44;0.88;;;0.57;;
67717;SDS011;54511;47.532;19.180;2023-08-06T15:38:37;0.80;;;0.40;;
67717;SDS011;54511;47.532;19.180;2023-08-06T15:41:45;1.23;;;0.80;;
67717;SDS011;54511;47.532;19.180;2023-08-06T15:44:33;0.43;;;0.43;;
67717;SDS011;54511;47.532;19.180;2023-08-06T15:51:21;0.65;;;0.57;;
67717;SDS011;54511;47.532;19.180;2023-08-06T15:54:26;0.65;;;0.47;;
67717;SDS011;54511;47.532;19.180;2023-08-06T15:57:33;0.50;;;0.43;;
67717;SDS011;54511;47.532;19.180;2023-08-06T16:01:01;0.60;;;0.60;;
67717;SDS011;54511;47.532;19.180;2023-08-06T16:04:28;0.47;;;0.47;;
67717;SDS011;54511;47.532;19.180;2023-08-06T16:07:51;1.12;;;1.02;;
67717;SDS011;54511;47.532;19.180;2023-08-06T16:11:01;2.97;;;0.93;;
67717;SDS011;54511;47.532;19.180;2023-08-06T16:14:39;0.32;;;0.32;;
67717;SDS011;54511;47.532;19.180;2023-08-06T16:18:10;0.47;;;0.47;;
67717;SDS011;54511;47.532;19.180;2023-08-06T16:21:52;0.40;;;0.30;;
67717;SDS011;54511;47.532;19.180;2023-08-06T16:25:08;2.37;;;0.62;;
67717;SDS011;54511;47.532;19.180;2023-08-06T16:28:43;0.75;;;0.73;;
67717;SDS011;54511;47.532;19.180;2023-08-06T16:32:11;5.43;;;0.90;;
67717;SDS011;54511;47.532;19.180;2023-08-06T16:35:19;0.35;;;0.35;;
67717;SDS011;54511;47.532;19.180;2023-08-06T16:38:25;0.60;;;0.60;;
67717;SDS011;54511;47.532;19.180;2023-08-06T16:41:33;1.20;;;0.47;;
67717;SDS011;54511;47.532;19.180;2023-08-06T16:45:02;1.08;;;1.08;;
67717;SDS011;54511;47.532;19.180;2023-08-06T16:51:31;0.90;;;0.43;;
67717;SDS011;54511;47.532;19.180;2023-08-06T16:54:32;0.70;;;0.52;;
67717;SDS011;54511;47.532;19.180;2023-08-06T16:57:19;0.88;;;0.47;;
67717;SDS011;54511;47.532;19.180;2023-08-06T17:04:00;0.30;;;0.30;;
67717;SDS011;54511;47.532;19.180;2023-08-06T17:07:11;0.60;;;0.60;;
67717;SDS011;54511;47.532;19.180;2023-08-06T17:10:20;0.50;;;0.50;;
67717;SDS011;54511;47.532;19.180;2023-08-06T17:13:49;0.80;;;0.50;;
67717;SDS011;54511;47.532;19.180;2023-08-06T17:20:15;0.50;;;0.50;;
67717;SDS011;54511;47.532;19.180;2023-08-06T17:23:40;0.43;;;0.43;;
67717;SDS011;54511;47.532;19.180;2023-08-06T17:27:19;0.50;;;0.50;;
67717;SDS011;54511;47.532;19.180;2023-08-06T17:30:16;0.30;;;0.30;;
67717;SDS011;54511;47.532;19.180;2023-08-06T17:33:47;0.83;;;0.50;;
67717;SDS011;54511;47.532;19.180;2023-08-06T17:37:29;0.57;;;0.57;;
67717;SDS011;54511;47.532;19.180;2023-08-06T17:40:41;0.20;;;0.20;;
67717;SDS011;54511;47.532;19.180;2023-08-06T17:47:06;1.77;;;0.70;;
67717;SDS011;54511;47.532;19.180;2023-08-06T17:50:20;0.25;;;0.22;;
67717;SDS011;54511;47.532;19.180;2023-08-06T17:53:56;0.73;;;0.40;;
67717;SDS011;54511;47.532;19.180;2023-08-06T17:57:10;0.60;;;0.37;;
67717;SDS011;54511;47.532;19.180;2023-08-06T18:00:08;0.32;;;0.30;;
67717;SDS011;54511;47.532;19.180;2023-08-06T18:03:32;0.30;;;0.30;;
67717;SDS011;54511;47.532;19.180;2023-08-06T18:10:07;0.57;;;0.57;;
67717;SDS011;54511;47.532;19.180;2023-08-06T18:13:38;0.50;;;0.43;;
67717;SDS011;54511;47.532;19.180;2023-08-06T18:20:41;0.65;;;0.65;;
67717;SDS011;54511;47.532;19.180;2023-08-06T18:23:56;0.40;;;0.40;;
67717;SDS011;54511;47.532;19.180;2023-08-06T18:30:50;0.73;;;0.37;;
67717;SDS011;54511;47.532;19.180;2023-08-06T18:34:00;0.93;;;0.68;;
67717;SDS011;54511;47.532;19.180;2023-08-06T18:37:48;0.85;;;0.40;;
67717;SDS011;54511;47.532;19.180;2023-08-06T18:41:19;0.65;;;0.57;;
67717;SDS011;54511;47.532;19.180;2023-08-06T18:44:33;0.10;;;0.10;;
67717;SDS011;54511;47.532;19.180;2023-08-06T18:47:50;0.62;;;0.52;;
67717;SDS011;54511;47.532;19.180;2023-08-06T18:50:58;0.75;;;0.40;;
67717;SDS011;54511;47.532;19.180;2023-08-06T18:53:48;0.30;;;0.30;;
67717;SDS011;54511;47.532;19.180;2023-08-06T18:57:14;1.27;;;0.65;;
67717;SDS011;54511;47.532;19.180;2023-08-06T19:00:38;0.30;;;0.30;;
67717;SDS011;54511;47.532;19.180;2023-08-06T19:04:03;0.10;;;0.10;;
67717;SDS011;54511;47.532;19.180;2023-08-06T19:10:55;0.90;;;0.50;;
67717;SDS011;54511;47.532;19.180;2023-08-06T19:14:16;0.62;;;0.62;;
67717;SDS011;54511;47.532;19.180;2023-08-06T19:17:40;0.40;;;0.40;;
67717;SDS011;54511;47.532;19.180;2023-08-06T19:28:30;0.90;;;0.80;;
67717;SDS011;54511;47.532;19.180;2023-08-06T19:32:11;0.50;;;0.40;;
67717;SDS011;54511;47.532;19.180;2023-08-06T19:35:21;0.30;;;0.30;;
67717;SDS011;54511;47.532;19.180;2023-08-06T19:38:44;0.65;;;0.52;;
67717;SDS011;54511;47.532;19.180;2023-08-06T19:42:01;0.40;;;0.40;;
67717;SDS011;54511;47.532;19.180;2023-08-06T19:45:14;1.70;;;0.73;;
67717;SDS011;54511;47.532;19.180;2023-08-06T19:48:23;0.30;;;0.30;;
67717;SDS011;54511;47.532;19.180;2023-08-06T19:51:55;0.45;;;0.35;;
67717;SDS011;54511;47.532;19.180;2023-08-06T19:58:40;0.65;;;0.55;;
67717;SDS011;54511;47.532;19.180;2023-08-06T20:02:06;0.57;;;0.35;;
67717;SDS011;54511;47.532;19.180;2023-08-06T20:05:02;0.95;;;0.93;;
67717;SDS011;54511;47.532;19.180;2023-08-06T20:08:18;0.47;;;0.30;;
67717;SDS011;54511;47.532;19.180;2023-08-06T20:11:47;0.77;;;0.77;;
67717;SDS011;54511;47.532;19.180;2023-08-06T20:18:39;0.50;;;0.50;;
67717;SDS011;54511;47.532;19.180;2023-08-06T20:22:01;0.52;;;0.40;;
67717;SDS011;54511;47.532;19.180;2023-08-06T20:25:16;1.87;;;0.65;;
67717;SDS011;54511;47.532;19.180;2023-08-06T20:28:44;0.85;;;0.32;;
67717;SDS011;54511;47.532;19.180;2023-08-06T20:32:00;0.22;;;0.20;;
67717;SDS011;54511;47.532;19.180;2023-08-06T20:35:09;0.32;;;0.10;;
67717;SDS011;54511;47.532;19.180;2023-08-06T20:37:57;0.90;;;0.40;;
67717;SDS011;54511;47.532;19.180;2023-08-06T20:41:30;0.85;;;0.50;;
67717;SDS011;54511;47.532;19.180;2023-08-06T20:44:14;0.43;;;0.40;;
67717;SDS011;54511;47.532;19.180;2023-08-06T20:47:43;0.10;;;0.10;;
67717;SDS011;54511;47.532;19.180;2023-08-06T20:51:13;0.70;;;0.30;;
67717;SDS011;54511;47.532;19.180;2023-08-06T20:54:40;0.85;;;0.85;;
67717;SDS011;54511;47.532;19.180;2023-08-06T20:58:12;0.13;;;0.10;;
67717;SDS011;54511;47.532;19.180;2023-08-06T21:01:37;0.10;;;0.10;;
67717;SDS011;54511;47.532;19.180;2023-08-06T21:05:09;0.10;;;0.10;;
67717;SDS011;54511;47.532;19.180;2023-08-06T21:12:18;0.73;;;0.10;;
67717;SDS011;54511;47.532;19.180;2023-08-06T21:15:55;0.17;;;0.17;;
67717;SDS011;54511;47.532;19.180;2023-08-06T21:19:36;0.52;;;0.30;;
67717;SDS011;54511;47.532;19.180;2023-08-06T21:22:29;0.10;;;0.10;;
67717;SDS011;54511;47.532;19.180;2023-08-06T21:25:44;0.35;;;0.35;;
67717;SDS011;54511;47.532;19.180;2023-08-06T21:29:17;0.17;;;0.17;;
67717;SDS011;54511;47.532;19.180;2023-08-06T21:32:08;0.25;;;0.25;;
67717;SDS011;54511;47.532;19.180;2023-08-06T21:35:19;0.70;;;0.20;;
67717;SDS011;54511;47.532;19.180;2023-08-06T21:38:52;0.55;;;0.30;;
67717;SDS011;54511;47.532;19.180;2023-08-06T21:42:09;0.28;;;0.28;;
67717;SDS011;54511;47.532;19.180;2023-08-06T21:45:23;0.10;;;0.10;;
67717;SDS011;54511;47.532;19.180;2023-08-06T21:48:15;0.17;;;0.17;;
67717;SDS011;54511;47.532;19.180;2023-08-06T21:51:19;0.10;;;0.10;;
67717;SDS011;54511;47.532;19.180;2023-08-06T22:01:40;0.10;;;0.10;;
67717;SDS011;54511;47.532;19.180;2023-08-06T22:05:09;0.10;;;0.10;;
67717;SDS011;54511;47.532;19.180;2023-08-06T22:08:39;0.20;;;0.20;;
67717;SDS011;54511;47.532;19.180;2023-08-06T22:15:51;0.00;;;0.00;;
67717;SDS011;54511;47.532;19.180;2023-08-06T22:19:18;0.50;;;0.45;;
67717;SDS011;54511;47.532;19.180;2023-08-06T22:22:25;0.10;;;0.10;;
67717;SDS011;54511;47.532;19.180;2023-08-06T22:25:33;0.10;;;0.10;;
67717;SDS011;54511;47.532;19.180;2023-08-06T22:28:41;0.00;;;0.00;;
67717;SDS011;54511;47.532;19.180;2023-08-06T22:32:03;0.00;;;0.00;;
67717;SDS011;54511;47.532;19.180;2023-08-06T22:34:47;0.00;;;0.00;;
67717;SDS011;54511;47.532;19.180;2023-08-06T22:38:10;0.10;;;0.10;;